sensor_id;sensor_type;location;lat;lon;timestamp;temperature;humidity
21734;DHT22;11029;47.820;10.534;2023-02-23T00:01:19;6.00;73.10
21734;DHT22;11029;47.820;10.534;2023-02-23T00:03:48;5.90;72.60
21734;DHT22;11029;47.820;10.534;2023-02-23T00:06:17;5.90;72.50
21734;DHT22;11029;47.820;10.534;2023-02-23T00:08:45;5.90;72.10
21734;DHT22;11029;47.820;10.534;2023-02-23T00:11:14;5.90;72.00
21734;DHT22;11029;47.820;10.534;2023-02-23T00:13:45;5.80;72.50
21734;DHT22;11029;47.820;10.534;2023-02-23T00:16:17;5.80;72.50
21734;DHT22;11029;47.820;10.534;2023-02-23T00:18:46;5.80;72.10
21734;DHT22;11029;47.820;10.534;2023-02-23T00:21:27;5.70;72.60
21734;DHT22;11029;47.820;10.534;2023-02-23T00:23:57;5.70;72.70
21734;DHT22;11029;47.820;10.534;2023-02-23T00:26:26;5.70;73.10
21734;DHT22;11029;47.820;10.534;2023-02-23T00:28:57;5.50;74.10
21734;DHT22;11029;47.820;10.534;2023-02-23T00:31:25;5.50;74.00
21734;DHT22;11029;47.820;10.534;2023-02-23T00:33:54;5.60;73.90
21734;DHT22;11029;47.820;10.534;2023-02-23T00:36:23;5.60;73.80
21734;DHT22;11029;47.820;10.534;2023-02-23T00:38:55;5.70;73.50
21734;DHT22;11029;47.820;10.534;2023-02-23T00:41:23;5.70;73.50
21734;DHT22;11029;47.820;10.534;2023-02-23T00:43:57;5.80;73.00
21734;DHT22;11029;47.820;10.534;2023-02-23T00:46:28;5.80;73.50
21734;DHT22;11029;47.820;10.534;2023-02-23T00:48:57;5.80;73.00
21734;DHT22;11029;47.820;10.534;2023-02-23T00:51:26;5.90;72.80
21734;DHT22;11029;47.820;10.534;2023-02-23T00:53:53;5.90;72.80
21734;DHT22;11029;47.820;10.534;2023-02-23T00:56:21;5.90;72.50
21734;DHT22;11029;47.820;10.534;2023-02-23T00:58:48;5.80;72.70
21734;DHT22;11029;47.820;10.534;2023-02-23T01:01:15;5.80;72.50
21734;DHT22;11029;47.820;10.534;2023-02-23T01:03:44;5.80;73.00
21734;DHT22;11029;47.820;10.534;2023-02-23T01:06:13;5.80;73.00
21734;DHT22;11029;47.820;10.534;2023-02-23T01:08:43;5.90;73.00
21734;DHT22;11029;47.820;10.534;2023-02-23T01:11:16;5.90;72.90
21734;DHT22;11029;47.820;10.534;2023-02-23T01:13:44;5.90;72.90
21734;DHT22;11029;47.820;10.534;2023-02-23T01:16:15;5.90;72.70
21734;DHT22;11029;47.820;10.534;2023-02-23T01:18:43;5.90;72.90
21734;DHT22;11029;47.820;10.534;2023-02-23T01:21:19;5.90;73.00
21734;DHT22;11029;47.820;10.534;2023-02-23T01:23:47;5.90;73.10
21734;DHT22;11029;47.820;10.534;2023-02-23T01:26:35;5.90;73.00
21734;DHT22;11029;47.820;10.534;2023-02-23T01:29:14;6.00;73.20
21734;DHT22;11029;47.820;10.534;2023-02-23T01:31:44;6.00;73.10
21734;DHT22;11029;47.820;10.534;2023-02-23T01:34:15;5.90;73.30
21734;DHT22;11029;47.820;10.534;2023-02-23T01:36:44;6.00;73.20
21734;DHT22;11029;47.820;10.534;2023-02-23T01:39:13;6.10;73.40
21734;DHT22;11029;47.820;10.534;2023-02-23T01:41:40;6.20;73.70
21734;DHT22;11029;47.820;10.534;2023-02-23T01:46:42;6.20;73.40
21734;DHT22;11029;47.820;10.534;2023-02-23T01:49:23;6.20;72.80
21734;DHT22;11029;47.820;10.534;2023-02-23T01:51:58;6.10;73.20
21734;DHT22;11029;47.820;10.534;2023-02-23T01:54:31;5.90;73.70
21734;DHT22;11029;47.820;10.534;2023-02-23T01:57:01;5.90;74.00
21734;DHT22;11029;47.820;10.534;2023-02-23T01:59:38;5.80;74.20
21734;DHT22;11029;47.820;10.534;2023-02-23T02:02:05;5.80;74.50
21734;DHT22;11029;47.820;10.534;2023-02-23T02:04:38;5.80;74.40
21734;DHT22;11029;47.820;10.534;2023-02-23T02:07:15;5.90;74.20
21734;DHT22;11029;47.820;10.534;2023-02-23T02:09:48;5.90;74.20
21734;DHT22;11029;47.820;10.534;2023-02-23T02:12:33;6.00;74.10
21734;DHT22;11029;47.820;10.534;2023-02-23T02:15:02;6.00;74.30
21734;DHT22;11029;47.820;10.534;2023-02-23T02:17:44;6.00;74.30
21734;DHT22;11029;47.820;10.534;2023-02-23T02:20:23;6.00;74.10
21734;DHT22;11029;47.820;10.534;2023-02-23T02:23:19;6.00;74.70
21734;DHT22;11029;47.820;10.534;2023-02-23T02:26:27;6.10;74.00
21734;DHT22;11029;47.820;10.534;2023-02-23T02:31:56;6.20;73.90
21734;DHT22;11029;47.820;10.534;2023-02-23T02:34:44;6.20;73.70
21734;DHT22;11029;47.820;10.534;2023-02-23T02:40:32;6.10;74.40
21734;DHT22;11029;47.820;10.534;2023-02-23T02:46:06;6.20;77.00
21734;DHT22;11029;47.820;10.534;2023-02-23T02:48:54;6.20;75.90
21734;DHT22;11029;47.820;10.534;2023-02-23T02:54:48;6.20;79.30
21734;DHT22;11029;47.820;10.534;2023-02-23T02:57:27;6.30;79.60
21734;DHT22;11029;47.820;10.534;2023-02-23T02:59:56;6.40;79.30
21734;DHT22;11029;47.820;10.534;2023-02-23T03:02:42;6.50;79.50
21734;DHT22;11029;47.820;10.534;2023-02-23T03:05:44;6.50;78.90
21734;DHT22;11029;47.820;10.534;2023-02-23T03:08:49;6.50;79.70
21734;DHT22;11029;47.820;10.534;2023-02-23T03:11:42;6.40;80.30
21734;DHT22;11029;47.820;10.534;2023-02-23T03:15:03;6.50;80.10
21734;DHT22;11029;47.820;10.534;2023-02-23T03:22:03;6.60;79.70
21734;DHT22;11029;47.820;10.534;2023-02-23T03:24:56;6.70;79.30
21734;DHT22;11029;47.820;10.534;2023-02-23T03:27:49;6.70;78.30
21734;DHT22;11029;47.820;10.534;2023-02-23T03:30:39;6.70;77.80
21734;DHT22;11029;47.820;10.534;2023-02-23T03:33:52;6.70;77.60
21734;DHT22;11029;47.820;10.534;2023-02-23T03:36:44;6.70;78.00
21734;DHT22;11029;47.820;10.534;2023-02-23T03:39:32;6.70;77.80
21734;DHT22;11029;47.820;10.534;2023-02-23T03:42:20;6.70;77.80
21734;DHT22;11029;47.820;10.534;2023-02-23T03:45:14;6.70;77.80
21734;DHT22;11029;47.820;10.534;2023-02-23T03:48:02;6.70;78.50
21734;DHT22;11029;47.820;10.534;2023-02-23T03:50:52;6.70;78.70
21734;DHT22;11029;47.820;10.534;2023-02-23T03:54:00;6.70;78.60
21734;DHT22;11029;47.820;10.534;2023-02-23T03:56:49;6.70;78.60
21734;DHT22;11029;47.820;10.534;2023-02-23T03:59:39;6.70;78.40
21734;DHT22;11029;47.820;10.534;2023-02-23T04:02:29;6.70;78.50
21734;DHT22;11029;47.820;10.534;2023-02-23T04:05:19;6.70;78.60
21734;DHT22;11029;47.820;10.534;2023-02-23T04:08:10;6.60;79.00
21734;DHT22;11029;47.820;10.534;2023-02-23T04:11:01;6.60;79.20
21734;DHT22;11029;47.820;10.534;2023-02-23T04:13:54;6.60;79.90
21734;DHT22;11029;47.820;10.534;2023-02-23T04:16:24;6.60;80.00
21734;DHT22;11029;47.820;10.534;2023-02-23T04:18:51;6.60;80.20
21734;DHT22;11029;47.820;10.534;2023-02-23T04:21:17;6.60;80.30
21734;DHT22;11029;47.820;10.534;2023-02-23T04:23:45;6.60;80.30
21734;DHT22;11029;47.820;10.534;2023-02-23T04:26:11;6.60;80.30
21734;DHT22;11029;47.820;10.534;2023-02-23T04:28:39;6.60;80.10
21734;DHT22;11029;47.820;10.534;2023-02-23T04:31:05;6.70;80.20
21734;DHT22;11029;47.820;10.534;2023-02-23T04:33:32;6.70;80.30
21734;DHT22;11029;47.820;10.534;2023-02-23T04:35:59;6.70;80.10
21734;DHT22;11029;47.820;10.534;2023-02-23T04:38:25;6.70;80.00
21734;DHT22;11029;47.820;10.534;2023-02-23T04:40:52;6.70;80.20
21734;DHT22;11029;47.820;10.534;2023-02-23T04:43:19;6.70;80.40
21734;DHT22;11029;47.820;10.534;2023-02-23T04:45:46;6.70;80.20
21734;DHT22;11029;47.820;10.534;2023-02-23T04:48:12;6.70;80.10
21734;DHT22;11029;47.820;10.534;2023-02-23T04:50:39;6.70;80.20
21734;DHT22;11029;47.820;10.534;2023-02-23T04:53:06;6.60;80.40
21734;DHT22;11029;47.820;10.534;2023-02-23T04:55:34;6.60;80.30
21734;DHT22;11029;47.820;10.534;2023-02-23T04:58:02;6.60;80.40
21734;DHT22;11029;47.820;10.534;2023-02-23T05:00:29;6.60;80.30
21734;DHT22;11029;47.820;10.534;2023-02-23T05:02:57;6.60;80.70
21734;DHT22;11029;47.820;10.534;2023-02-23T05:05:24;6.60;80.80
21734;DHT22;11029;47.820;10.534;2023-02-23T05:07:51;6.50;80.90
21734;DHT22;11029;47.820;10.534;2023-02-23T05:10:20;6.50;80.90
21734;DHT22;11029;47.820;10.534;2023-02-23T05:12:46;6.50;80.80
21734;DHT22;11029;47.820;10.534;2023-02-23T05:15:13;6.50;81.00
21734;DHT22;11029;47.820;10.534;2023-02-23T05:17:40;6.50;81.40
21734;DHT22;11029;47.820;10.534;2023-02-23T05:20:11;6.50;81.90
21734;DHT22;11029;47.820;10.534;2023-02-23T05:22:39;6.40;83.10
21734;DHT22;11029;47.820;10.534;2023-02-23T05:25:07;6.50;83.10
21734;DHT22;11029;47.820;10.534;2023-02-23T05:27:36;6.50;82.70
21734;DHT22;11029;47.820;10.534;2023-02-23T05:30:04;6.60;82.70
21734;DHT22;11029;47.820;10.534;2023-02-23T05:32:33;6.50;82.40
21734;DHT22;11029;47.820;10.534;2023-02-23T05:35:00;6.50;82.50
21734;DHT22;11029;47.820;10.534;2023-02-23T05:37:28;6.50;82.00
21734;DHT22;11029;47.820;10.534;2023-02-23T05:39:56;6.60;81.60
21734;DHT22;11029;47.820;10.534;2023-02-23T05:42:22;6.60;81.40
21734;DHT22;11029;47.820;10.534;2023-02-23T05:44:49;6.50;81.40
21734;DHT22;11029;47.820;10.534;2023-02-23T05:47:16;6.40;82.10
21734;DHT22;11029;47.820;10.534;2023-02-23T05:49:43;6.40;82.30
21734;DHT22;11029;47.820;10.534;2023-02-23T05:52:11;6.40;82.20
21734;DHT22;11029;47.820;10.534;2023-02-23T05:54:38;6.40;82.50
21734;DHT22;11029;47.820;10.534;2023-02-23T05:57:05;6.30;83.40
21734;DHT22;11029;47.820;10.534;2023-02-23T05:59:33;6.30;84.10
21734;DHT22;11029;47.820;10.534;2023-02-23T06:02:00;6.30;84.10
21734;DHT22;11029;47.820;10.534;2023-02-23T06:04:30;6.30;84.10
21734;DHT22;11029;47.820;10.534;2023-02-23T06:06:57;6.40;84.10
21734;DHT22;11029;47.820;10.534;2023-02-23T06:09:24;6.40;83.50
21734;DHT22;11029;47.820;10.534;2023-02-23T06:11:51;6.40;83.60
21734;DHT22;11029;47.820;10.534;2023-02-23T06:14:18;6.40;83.40
21734;DHT22;11029;47.820;10.534;2023-02-23T06:16:44;6.40;83.30
21734;DHT22;11029;47.820;10.534;2023-02-23T06:19:13;6.50;83.40
21734;DHT22;11029;47.820;10.534;2023-02-23T06:21:40;6.40;83.10
21734;DHT22;11029;47.820;10.534;2023-02-23T06:24:07;6.40;83.30
21734;DHT22;11029;47.820;10.534;2023-02-23T06:26:34;6.40;83.70
21734;DHT22;11029;47.820;10.534;2023-02-23T06:29:01;6.40;83.90
21734;DHT22;11029;47.820;10.534;2023-02-23T06:31:27;6.40;83.60
21734;DHT22;11029;47.820;10.534;2023-02-23T06:33:54;6.40;83.90
21734;DHT22;11029;47.820;10.534;2023-02-23T06:36:21;6.30;84.00
21734;DHT22;11029;47.820;10.534;2023-02-23T06:38:48;6.20;84.60
21734;DHT22;11029;47.820;10.534;2023-02-23T06:41:15;6.20;85.00
21734;DHT22;11029;47.820;10.534;2023-02-23T06:43:43;6.30;84.80
21734;DHT22;11029;47.820;10.534;2023-02-23T06:46:11;6.40;84.40
21734;DHT22;11029;47.820;10.534;2023-02-23T06:48:38;6.40;84.20
21734;DHT22;11029;47.820;10.534;2023-02-23T06:51:04;6.50;83.60
21734;DHT22;11029;47.820;10.534;2023-02-23T06:53:32;6.60;83.20
21734;DHT22;11029;47.820;10.534;2023-02-23T06:55:59;6.70;82.90
21734;DHT22;11029;47.820;10.534;2023-02-23T06:58:26;6.70;82.50
21734;DHT22;11029;47.820;10.534;2023-02-23T07:00:55;6.80;82.20
21734;DHT22;11029;47.820;10.534;2023-02-23T07:03:22;6.90;81.60
21734;DHT22;11029;47.820;10.534;2023-02-23T07:05:49;6.90;81.20
21734;DHT22;11029;47.820;10.534;2023-02-23T07:08:17;6.90;81.50
21734;DHT22;11029;47.820;10.534;2023-02-23T07:10:44;6.90;81.40
21734;DHT22;11029;47.820;10.534;2023-02-23T07:13:11;7.00;81.30
21734;DHT22;11029;47.820;10.534;2023-02-23T07:15:42;7.00;81.10
21734;DHT22;11029;47.820;10.534;2023-02-23T07:18:09;7.10;80.90
21734;DHT22;11029;47.820;10.534;2023-02-23T07:20:36;7.10;80.70
21734;DHT22;11029;47.820;10.534;2023-02-23T07:23:03;7.00;80.90
21734;DHT22;11029;47.820;10.534;2023-02-23T07:25:30;7.00;81.00
21734;DHT22;11029;47.820;10.534;2023-02-23T07:27:57;6.90;81.00
21734;DHT22;11029;47.820;10.534;2023-02-23T07:30:25;6.80;81.50
21734;DHT22;11029;47.820;10.534;2023-02-23T07:32:52;6.90;81.70
21734;DHT22;11029;47.820;10.534;2023-02-23T07:35:19;6.70;81.40
21734;DHT22;11029;47.820;10.534;2023-02-23T07:37:46;6.70;82.20
21734;DHT22;11029;47.820;10.534;2023-02-23T07:40:16;6.60;82.40
21734;DHT22;11029;47.820;10.534;2023-02-23T07:42:44;6.60;82.50
21734;DHT22;11029;47.820;10.534;2023-02-23T07:45:10;6.60;82.70
21734;DHT22;11029;47.820;10.534;2023-02-23T07:47:37;6.70;82.70
21734;DHT22;11029;47.820;10.534;2023-02-23T07:50:05;6.70;82.00
21734;DHT22;11029;47.820;10.534;2023-02-23T07:52:36;6.60;82.30
21734;DHT22;11029;47.820;10.534;2023-02-23T07:55:05;6.50;82.50
21734;DHT22;11029;47.820;10.534;2023-02-23T07:57:32;6.50;82.80
21734;DHT22;11029;47.820;10.534;2023-02-23T07:59:59;6.70;82.60
21734;DHT22;11029;47.820;10.534;2023-02-23T08:02:27;6.60;82.30
21734;DHT22;11029;47.820;10.534;2023-02-23T08:04:58;6.70;82.40
21734;DHT22;11029;47.820;10.534;2023-02-23T08:07:24;6.60;82.10
21734;DHT22;11029;47.820;10.534;2023-02-23T08:09:52;6.50;82.10
21734;DHT22;11029;47.820;10.534;2023-02-23T08:12:19;6.60;82.00
21734;DHT22;11029;47.820;10.534;2023-02-23T08:14:45;6.60;82.50
21734;DHT22;11029;47.820;10.534;2023-02-23T08:17:12;6.70;81.50
21734;DHT22;11029;47.820;10.534;2023-02-23T08:19:39;6.70;81.70
21734;DHT22;11029;47.820;10.534;2023-02-23T08:22:06;6.80;81.40
21734;DHT22;11029;47.820;10.534;2023-02-23T08:24:36;6.80;80.70
21734;DHT22;11029;47.820;10.534;2023-02-23T08:27:03;6.90;80.40
21734;DHT22;11029;47.820;10.534;2023-02-23T08:29:30;6.80;80.50
21734;DHT22;11029;47.820;10.534;2023-02-23T08:31:57;6.70;80.70
21734;DHT22;11029;47.820;10.534;2023-02-23T08:34:24;6.80;81.50
21734;DHT22;11029;47.820;10.534;2023-02-23T08:36:51;6.80;81.40
21734;DHT22;11029;47.820;10.534;2023-02-23T08:39:19;6.80;82.10
21734;DHT22;11029;47.820;10.534;2023-02-23T08:41:47;6.90;81.10
21734;DHT22;11029;47.820;10.534;2023-02-23T08:44:14;7.00;81.20
21734;DHT22;11029;47.820;10.534;2023-02-23T08:46:40;7.00;80.20
21734;DHT22;11029;47.820;10.534;2023-02-23T08:49:07;6.80;80.40
21734;DHT22;11029;47.820;10.534;2023-02-23T08:51:37;6.80;79.80
21734;DHT22;11029;47.820;10.534;2023-02-23T08:54:04;6.80;80.60
21734;DHT22;11029;47.820;10.534;2023-02-23T08:56:35;6.80;80.40
21734;DHT22;11029;47.820;10.534;2023-02-23T08:59:02;6.80;79.90
21734;DHT22;11029;47.820;10.534;2023-02-23T09:01:28;6.80;79.90
21734;DHT22;11029;47.820;10.534;2023-02-23T09:03:55;6.90;79.70
21734;DHT22;11029;47.820;10.534;2023-02-23T09:06:23;6.90;79.50
21734;DHT22;11029;47.820;10.534;2023-02-23T09:08:54;6.90;79.70
21734;DHT22;11029;47.820;10.534;2023-02-23T09:11:21;6.90;79.80
21734;DHT22;11029;47.820;10.534;2023-02-23T09:13:48;7.00;79.90
21734;DHT22;11029;47.820;10.534;2023-02-23T09:16:16;7.00;79.70
21734;DHT22;11029;47.820;10.534;2023-02-23T09:18:42;7.10;79.90
21734;DHT22;11029;47.820;10.534;2023-02-23T09:21:14;7.00;80.00
21734;DHT22;11029;47.820;10.534;2023-02-23T09:23:45;7.10;80.40
21734;DHT22;11029;47.820;10.534;2023-02-23T09:26:13;7.20;80.00
21734;DHT22;11029;47.820;10.534;2023-02-23T09:28:40;7.20;79.50
21734;DHT22;11029;47.820;10.534;2023-02-23T09:31:10;7.30;80.60
21734;DHT22;11029;47.820;10.534;2023-02-23T09:33:38;7.10;79.30
21734;DHT22;11029;47.820;10.534;2023-02-23T09:36:10;7.00;80.10
21734;DHT22;11029;47.820;10.534;2023-02-23T09:38:45;7.10;80.50
21734;DHT22;11029;47.820;10.534;2023-02-23T09:41:49;7.20;80.10
21734;DHT22;11029;47.820;10.534;2023-02-23T09:44:33;7.20;79.40
21734;DHT22;11029;47.820;10.534;2023-02-23T09:49:50;7.30;79.00
21734;DHT22;11029;47.820;10.534;2023-02-23T09:52:24;7.30;79.00
21734;DHT22;11029;47.820;10.534;2023-02-23T09:54:52;7.30;78.90
21734;DHT22;11029;47.820;10.534;2023-02-23T09:57:28;7.20;79.60
21734;DHT22;11029;47.820;10.534;2023-02-23T09:59:58;7.30;79.60
21734;DHT22;11029;47.820;10.534;2023-02-23T10:02:36;7.20;80.20
21734;DHT22;11029;47.820;10.534;2023-02-23T10:05:07;7.40;80.40
21734;DHT22;11029;47.820;10.534;2023-02-23T10:13:14;7.80;78.90
21734;DHT22;11029;47.820;10.534;2023-02-23T10:21:37;8.20;76.00
21734;DHT22;11029;47.820;10.534;2023-02-23T10:24:14;8.40;76.00
21734;DHT22;11029;47.820;10.534;2023-02-23T10:26:48;8.60;75.30
21734;DHT22;11029;47.820;10.534;2023-02-23T10:29:29;8.80;74.60
21734;DHT22;11029;47.820;10.534;2023-02-23T10:32:02;8.80;74.00
21734;DHT22;11029;47.820;10.534;2023-02-23T10:34:31;8.80;72.70
21734;DHT22;11029;47.820;10.534;2023-02-23T10:37:00;8.80;72.00
21734;DHT22;11029;47.820;10.534;2023-02-23T10:39:30;8.80;72.30
21734;DHT22;11029;47.820;10.534;2023-02-23T10:42:00;8.80;72.10
21734;DHT22;11029;47.820;10.534;2023-02-23T10:44:28;8.70;71.40
21734;DHT22;11029;47.820;10.534;2023-02-23T10:47:06;8.70;71.80
21734;DHT22;11029;47.820;10.534;2023-02-23T10:49:48;8.70;71.00
21734;DHT22;11029;47.820;10.534;2023-02-23T10:52:34;8.80;70.60
21734;DHT22;11029;47.820;10.534;2023-02-23T10:55:21;8.80;71.30
21734;DHT22;11029;47.820;10.534;2023-02-23T10:57:51;8.70;71.40
21734;DHT22;11029;47.820;10.534;2023-02-23T11:00:30;8.80;71.60
21734;DHT22;11029;47.820;10.534;2023-02-23T11:03:00;8.90;71.80
21734;DHT22;11029;47.820;10.534;2023-02-23T11:10:35;9.10;70.00
21734;DHT22;11029;47.820;10.534;2023-02-23T11:13:02;9.20;70.10
21734;DHT22;11029;47.820;10.534;2023-02-23T11:15:31;9.20;70.60
21734;DHT22;11029;47.820;10.534;2023-02-23T11:18:21;9.20;69.60
21734;DHT22;11029;47.820;10.534;2023-02-23T11:20:48;9.10;69.80
21734;DHT22;11029;47.820;10.534;2023-02-23T11:23:23;9.10;67.90
21734;DHT22;11029;47.820;10.534;2023-02-23T11:26:00;9.10;69.00
21734;DHT22;11029;47.820;10.534;2023-02-23T11:28:36;9.20;68.20
21734;DHT22;11029;47.820;10.534;2023-02-23T11:31:12;9.30;66.80
21734;DHT22;11029;47.820;10.534;2023-02-23T11:33:39;9.50;67.70
21734;DHT22;11029;47.820;10.534;2023-02-23T11:41:28;9.60;66.90
21734;DHT22;11029;47.820;10.534;2023-02-23T11:43:58;9.40;68.30
21734;DHT22;11029;47.820;10.534;2023-02-23T11:46:31;9.50;68.60
21734;DHT22;11029;47.820;10.534;2023-02-23T11:49:00;9.70;66.90
21734;DHT22;11029;47.820;10.534;2023-02-23T11:51:30;9.70;66.90
21734;DHT22;11029;47.820;10.534;2023-02-23T11:53:59;9.80;65.70
21734;DHT22;11029;47.820;10.534;2023-02-23T11:56:28;9.80;66.20
21734;DHT22;11029;47.820;10.534;2023-02-23T11:59:04;9.80;66.00
21734;DHT22;11029;47.820;10.534;2023-02-23T12:01:47;9.80;66.60
21734;DHT22;11029;47.820;10.534;2023-02-23T12:04:31;10.00;65.30
21734;DHT22;11029;47.820;10.534;2023-02-23T12:12:48;10.80;62.60
21734;DHT22;11029;47.820;10.534;2023-02-23T12:15:39;10.70;63.40
21734;DHT22;11029;47.820;10.534;2023-02-23T12:18:17;11.00;63.90
21734;DHT22;11029;47.820;10.534;2023-02-23T12:20:47;11.00;62.50
21734;DHT22;11029;47.820;10.534;2023-02-23T12:23:23;11.00;62.20
21734;DHT22;11029;47.820;10.534;2023-02-23T12:26:04;11.50;62.40
21734;DHT22;11029;47.820;10.534;2023-02-23T12:29:04;12.10;59.60
21734;DHT22;11029;47.820;10.534;2023-02-23T12:34:15;13.60;56.70
21734;DHT22;11029;47.820;10.534;2023-02-23T12:37:38;13.90;54.00
21734;DHT22;11029;47.820;10.534;2023-02-23T12:39:49;14.00;53.30
21734;DHT22;11029;47.820;10.534;2023-02-23T12:42:31;13.70;54.00
21734;DHT22;11029;47.820;10.534;2023-02-23T12:45:03;13.40;54.10
21734;DHT22;11029;47.820;10.534;2023-02-23T12:47:43;13.40;54.60
21734;DHT22;11029;47.820;10.534;2023-02-23T12:50:32;13.00;54.30
21734;DHT22;11029;47.820;10.534;2023-02-23T12:53:20;12.90;55.80
21734;DHT22;11029;47.820;10.534;2023-02-23T12:58:49;13.00;54.90
21734;DHT22;11029;47.820;10.534;2023-02-23T13:01:26;12.60;56.10
21734;DHT22;11029;47.820;10.534;2023-02-23T13:07:13;12.90;56.60
21734;DHT22;11029;47.820;10.534;2023-02-23T13:12:39;13.30;54.50
21734;DHT22;11029;47.820;10.534;2023-02-23T13:17:56;13.10;54.90
21734;DHT22;11029;47.820;10.534;2023-02-23T13:20:37;13.10;54.80
21734;DHT22;11029;47.820;10.534;2023-02-23T13:23:25;12.90;54.40
21734;DHT22;11029;47.820;10.534;2023-02-23T13:28:55;12.80;55.60
21734;DHT22;11029;47.820;10.534;2023-02-23T13:31:31;13.00;55.40
21734;DHT22;11029;47.820;10.534;2023-02-23T13:34:01;13.10;55.00
21734;DHT22;11029;47.820;10.534;2023-02-23T13:36:30;13.30;54.40
21734;DHT22;11029;47.820;10.534;2023-02-23T13:42:08;13.30;54.10
21734;DHT22;11029;47.820;10.534;2023-02-23T13:44:43;13.50;53.30
21734;DHT22;11029;47.820;10.534;2023-02-23T13:50:41;13.20;51.50
21734;DHT22;11029;47.820;10.534;2023-02-23T13:52:39;13.40;52.50
21734;DHT22;11029;47.820;10.534;2023-02-23T13:58:05;13.30;50.40
21734;DHT22;11029;47.820;10.534;2023-02-23T14:00:36;13.20;50.80
21734;DHT22;11029;47.820;10.534;2023-02-23T14:03:05;13.20;49.50
21734;DHT22;11029;47.820;10.534;2023-02-23T14:05:41;13.20;49.80
21734;DHT22;11029;47.820;10.534;2023-02-23T14:08:20;13.40;49.90
21734;DHT22;11029;47.820;10.534;2023-02-23T14:10:49;13.90;49.50
21734;DHT22;11029;47.820;10.534;2023-02-23T14:15:47;14.80;46.00
21734;DHT22;11029;47.820;10.534;2023-02-23T14:25:51;19.60;39.40
21734;DHT22;11029;47.820;10.534;2023-02-23T14:28:35;21.40;36.30
21734;DHT22;11029;47.820;10.534;2023-02-23T14:41:27;24.50;31.50
21734;DHT22;11029;47.820;10.534;2023-02-23T14:43:58;25.60;30.90
21734;DHT22;11029;47.820;10.534;2023-02-23T14:46:31;26.50;29.80
21734;DHT22;11029;47.820;10.534;2023-02-23T14:49:07;27.10;29.80
21734;DHT22;11029;47.820;10.534;2023-02-23T14:51:45;27.50;29.10
21734;DHT22;11029;47.820;10.534;2023-02-23T14:56:52;28.30;28.20
21734;DHT22;11029;47.820;10.534;2023-02-23T14:59:21;28.00;28.70
21734;DHT22;11029;47.820;10.534;2023-02-23T15:01:49;28.60;28.30
21734;DHT22;11029;47.820;10.534;2023-02-23T15:04:23;28.10;28.60
21734;DHT22;11029;47.820;10.534;2023-02-23T15:06:54;26.40;29.50
21734;DHT22;11029;47.820;10.534;2023-02-23T15:09:33;25.40;30.60
21734;DHT22;11029;47.820;10.534;2023-02-23T15:14:48;25.70;30.70
21734;DHT22;11029;47.820;10.534;2023-02-23T15:17:23;26.40;30.30
21734;DHT22;11029;47.820;10.534;2023-02-23T15:19:55;25.70;30.70
21734;DHT22;11029;47.820;10.534;2023-02-23T15:22:40;23.70;32.60
21734;DHT22;11029;47.820;10.534;2023-02-23T15:25:40;21.50;35.00
21734;DHT22;11029;47.820;10.534;2023-02-23T15:28:27;19.60;38.00
21734;DHT22;11029;47.820;10.534;2023-02-23T15:31:00;18.10;40.50
21734;DHT22;11029;47.820;10.534;2023-02-23T15:33:27;17.20;42.20
21734;DHT22;11029;47.820;10.534;2023-02-23T15:38:33;15.90;46.00
21734;DHT22;11029;47.820;10.534;2023-02-23T15:41:24;16.10;46.10
21734;DHT22;11029;47.820;10.534;2023-02-23T15:43:52;16.30;45.10
21734;DHT22;11029;47.820;10.534;2023-02-23T15:46:23;16.00;45.70
21734;DHT22;11029;47.820;10.534;2023-02-23T15:48:53;15.60;46.40
21734;DHT22;11029;47.820;10.534;2023-02-23T15:51:38;15.30;46.90
21734;DHT22;11029;47.820;10.534;2023-02-23T15:54:18;14.90;47.80
21734;DHT22;11029;47.820;10.534;2023-02-23T15:56:55;14.70;48.60
21734;DHT22;11029;47.820;10.534;2023-02-23T15:59:28;14.60;48.90
21734;DHT22;11029;47.820;10.534;2023-02-23T16:01:59;14.70;48.70
21734;DHT22;11029;47.820;10.534;2023-02-23T16:04:32;14.70;48.50
21734;DHT22;11029;47.820;10.534;2023-02-23T16:07:06;14.30;49.20
21734;DHT22;11029;47.820;10.534;2023-02-23T16:09:37;13.90;50.20
21734;DHT22;11029;47.820;10.534;2023-02-23T16:12:13;13.60;51.10
21734;DHT22;11029;47.820;10.534;2023-02-23T16:14:49;13.40;51.50
21734;DHT22;11029;47.820;10.534;2023-02-23T16:20:02;12.90;53.60
21734;DHT22;11029;47.820;10.534;2023-02-23T16:22:33;12.60;54.40
21734;DHT22;11029;47.820;10.534;2023-02-23T16:25:03;12.50;54.70
21734;DHT22;11029;47.820;10.534;2023-02-23T16:27:33;12.40;55.20
21734;DHT22;11029;47.820;10.534;2023-02-23T16:30:18;12.20;55.60
21734;DHT22;11029;47.820;10.534;2023-02-23T16:33:05;12.00;56.40
21734;DHT22;11029;47.820;10.534;2023-02-23T16:35:37;11.80;56.80
21734;DHT22;11029;47.820;10.534;2023-02-23T16:40:40;11.40;58.30
21734;DHT22;11029;47.820;10.534;2023-02-23T16:43:08;11.20;58.80
21734;DHT22;11029;47.820;10.534;2023-02-23T16:45:36;11.00;59.50
21734;DHT22;11029;47.820;10.534;2023-02-23T16:48:03;10.90;59.50
21734;DHT22;11029;47.820;10.534;2023-02-23T16:50:33;10.70;59.80
21734;DHT22;11029;47.820;10.534;2023-02-23T16:53:00;10.30;60.90
21734;DHT22;11029;47.820;10.534;2023-02-23T16:55:29;10.10;62.10
21734;DHT22;11029;47.820;10.534;2023-02-23T16:58:01;10.00;62.60
21734;DHT22;11029;47.820;10.534;2023-02-23T17:00:29;10.00;63.10
21734;DHT22;11029;47.820;10.534;2023-02-23T17:02:57;9.90;63.40
21734;DHT22;11029;47.820;10.534;2023-02-23T17:05:27;9.80;63.40
21734;DHT22;11029;47.820;10.534;2023-02-23T17:07:54;9.80;63.70
21734;DHT22;11029;47.820;10.534;2023-02-23T17:10:26;9.70;63.70
21734;DHT22;11029;47.820;10.534;2023-02-23T17:13:04;9.50;64.50
21734;DHT22;11029;47.820;10.534;2023-02-23T17:15:35;9.40;65.00
21734;DHT22;11029;47.820;10.534;2023-02-23T17:18:03;9.30;65.10
21734;DHT22;11029;47.820;10.534;2023-02-23T17:20:31;9.20;65.30
21734;DHT22;11029;47.820;10.534;2023-02-23T17:22:59;9.10;65.20
21734;DHT22;11029;47.820;10.534;2023-02-23T17:25:26;8.90;65.60
21734;DHT22;11029;47.820;10.534;2023-02-23T17:27:54;8.70;66.30
21734;DHT22;11029;47.820;10.534;2023-02-23T17:30:22;8.60;66.30
21734;DHT22;11029;47.820;10.534;2023-02-23T17:32:50;8.50;66.20
21734;DHT22;11029;47.820;10.534;2023-02-23T17:35:18;8.30;66.90
21734;DHT22;11029;47.820;10.534;2023-02-23T17:37:45;8.10;66.90
21734;DHT22;11029;47.820;10.534;2023-02-23T17:40:23;8.10;66.60
21734;DHT22;11029;47.820;10.534;2023-02-23T17:42:56;7.80;67.20
21734;DHT22;11029;47.820;10.534;2023-02-23T17:45:25;7.70;67.40
21734;DHT22;11029;47.820;10.534;2023-02-23T17:47:52;7.70;67.60
21734;DHT22;11029;47.820;10.534;2023-02-23T17:50:19;7.60;68.00
21734;DHT22;11029;47.820;10.534;2023-02-23T17:52:48;7.60;68.10